createdAt,value
2019-03-02T00:02:28.363Z,61.80
2019-03-02T00:06:32.770Z,61.90
2019-03-02T00:10:36.305Z,62.10
2019-03-02T00:14:39.378Z,62.00
2019-03-02T00:18:42.376Z,61.10
2019-03-02T00:22:45.504Z,62.30
2019-03-02T00:26:48.502Z,61.70
2019-03-02T00:30:54.836Z,61.00
2019-03-02T00:34:58.000Z,62.60
2019-03-02T00:39:01.675Z,62.20
2019-03-02T00:43:04.817Z,62.50
2019-03-02T00:47:07.832Z,62.70
2019-03-02T00:51:11.263Z,62.60
2019-03-02T00:55:15.149Z,63.20
2019-03-02T00:59:18.196Z,63.20
2019-03-02T01:03:21.289Z,63.70
2019-03-02T01:07:24.554Z,63.40
2019-03-02T01:11:29.547Z,63.70
2019-03-02T01:15:32.643Z,63.80
2019-03-02T01:19:35.649Z,65.00
2019-03-02T01:23:38.735Z,64.90
2019-03-02T01:27:41.738Z,64.50
2019-03-02T01:31:45.999Z,65.40
2019-03-02T01:35:49.089Z,64.80
2019-03-02T01:39:52.168Z,65.10
2019-03-02T01:43:55.175Z,65.30
2019-03-02T01:47:58.186Z,65.20
2019-03-02T01:52:01.275Z,65.00
2019-03-02T01:56:06.153Z,66.00
2019-03-02T02:00:13.767Z,65.90
2019-03-02T02:04:18.890Z,66.10
2019-03-02T02:08:22.159Z,66.70
2019-03-02T02:12:25.485Z,66.80
2019-03-02T02:16:30.091Z,66.50
2019-03-02T02:20:33.090Z,67.00
2019-03-02T02:24:36.196Z,66.80
2019-03-02T02:28:39.206Z,66.80
2019-03-02T02:32:43.461Z,67.20
2019-03-02T02:36:46.471Z,66.90
2019-03-02T02:40:49.496Z,67.00
2019-03-02T02:44:52.755Z,67.40
2019-03-02T02:48:55.779Z,67.20
2019-03-02T02:53:05.862Z,67.30
2019-03-02T02:57:03.823Z,66.90
2019-03-02T03:01:06.828Z,66.70
2019-03-02T03:05:14.647Z,66.10
2019-03-02T03:09:18.887Z,66.10
2019-03-02T03:13:21.897Z,65.80
2019-03-02T03:17:28.291Z,65.90
2019-03-02T03:21:29.792Z,65.60
2019-03-02T03:25:32.837Z,63.80
2019-03-02T03:29:35.857Z,63.60
2019-03-02T03:33:43.672Z,62.20
2019-03-02T03:37:50.443Z,60.80
2019-03-02T03:41:50.544Z,60.90
2019-03-02T03:45:53.553Z,60.50
2019-03-02T03:49:56.560Z,60.50
2019-03-02T03:54:01.763Z,61.50
2019-03-02T03:58:04.492Z,60.80
2019-03-02T04:02:07.616Z,60.60
2019-03-02T04:06:10.626Z,62.00
2019-03-02T04:10:14.999Z,61.80
2019-03-02T04:14:19.086Z,61.50
2019-03-02T04:18:50.138Z,61.40
2019-03-02T04:22:53.250Z,61.20
2019-03-02T04:26:56.414Z,60.80
2019-03-02T04:30:59.424Z,61.10
2019-03-02T04:35:07.485Z,61.00
2019-03-02T04:39:13.608Z,61.10
2019-03-02T04:43:15.394Z,60.90
2019-03-02T04:47:18.391Z,61.50
2019-03-02T04:51:21.473Z,61.20
2019-03-02T04:55:24.487Z,62.00
2019-03-02T04:59:27.488Z,60.80
2019-03-02T05:03:30.504Z,61.40
2019-03-02T05:07:33.525Z,62.20
2019-03-02T05:11:39.320Z,62.10
2019-03-02T05:15:41.500Z,62.30
2019-03-02T05:19:44.600Z,62.20
2019-03-02T05:23:47.621Z,62.70
2019-03-02T05:27:50.702Z,62.70
2019-03-02T05:31:53.699Z,62.30
2019-03-02T05:35:57.868Z,62.30
2019-03-02T05:40:00.961Z,62.50
2019-03-02T05:44:03.984Z,62.60
2019-03-02T05:48:07.014Z,62.90
2019-03-02T05:52:10.018Z,62.40
2019-03-02T05:56:13.108Z,62.90
2019-03-02T06:00:18.517Z,62.80
2019-03-02T06:08:24.569Z,63.10
2019-03-02T06:12:27.581Z,63.10
2019-03-02T06:16:30.593Z,64.60
2019-03-02T06:20:35.580Z,63.60
2019-03-02T06:24:41.105Z,63.50
2019-03-02T06:28:43.455Z,63.80
2019-03-02T06:32:46.455Z,64.60
2019-03-02T06:36:49.867Z,65.20
2019-03-02T06:40:54.909Z,66.00
2019-03-02T06:44:57.816Z,66.20
2019-03-02T06:49:00.892Z,66.00
2019-03-02T06:53:03.897Z,66.40
2019-03-02T06:57:06.982Z,66.30
2019-03-02T07:01:09.985Z,67.60
2019-03-02T07:05:13.215Z,66.90
2019-03-02T07:09:16.288Z,67.50
2019-03-02T07:13:21.150Z,67.70
2019-03-02T07:17:27.622Z,67.50
2019-03-02T07:21:30.843Z,67.60
2019-03-02T07:25:36.938Z,67.70
2019-03-02T07:29:38.872Z,67.80
2019-03-02T07:33:41.940Z,67.70
2019-03-02T07:37:45.620Z,67.90
2019-03-02T07:41:48.628Z,67.70
2019-03-02T07:45:51.937Z,68.30
2019-03-02T07:49:54.939Z,68.40
2019-03-02T07:53:58.062Z,68.60
2019-03-02T07:58:01.079Z,68.40
2019-03-02T08:02:04.376Z,68.50
2019-03-02T08:06:07.388Z,68.20
2019-03-02T08:10:11.413Z,67.90
2019-03-02T08:14:16.070Z,68.00
2019-03-02T08:18:21.801Z,68.00
2019-03-02T08:22:24.248Z,68.00
2019-03-02T08:26:27.276Z,66.10
2019-03-02T08:30:33.483Z,65.60
2019-03-02T08:34:35.208Z,65.50
2019-03-02T08:38:38.983Z,65.10
2019-03-02T08:42:42.599Z,64.30
2019-03-02T08:46:45.804Z,65.00
2019-03-02T08:50:49.722Z,64.80
2019-03-02T08:54:57.130Z,65.30
2019-03-02T08:59:01.992Z,64.90
2019-03-02T09:03:03.780Z,64.60
2019-03-02T09:07:07.770Z,63.90
2019-03-02T09:11:11.822Z,63.60
2019-03-02T09:15:30.298Z,63.70
2019-03-02T09:19:33.550Z,64.20
2019-03-02T09:23:37.129Z,63.60
2019-03-02T09:27:40.254Z,63.30
2019-03-02T09:31:43.517Z,62.90
2019-03-02T09:35:49.082Z,62.70
2019-03-02T09:39:53.336Z,62.60
2019-03-02T09:44:00.921Z,62.40
2019-03-02T09:48:01.334Z,62.50
2019-03-02T09:52:04.343Z,63.20
2019-03-02T09:56:07.433Z,63.00
2019-03-02T10:00:23.721Z,63.60
2019-03-02T10:04:24.483Z,64.00
2019-03-02T10:08:31.447Z,64.40
2019-03-02T10:12:35.044Z,64.20
2019-03-02T10:16:38.422Z,64.00
2019-03-02T10:20:42.829Z,64.30
2019-03-02T10:24:49.796Z,64.40
2019-03-02T10:28:52.104Z,64.70
2019-03-02T10:32:56.866Z,65.10
2019-03-02T10:37:03.594Z,65.40
2019-03-02T10:41:07.352Z,65.80
2019-03-02T10:45:15.755Z,66.00
2019-03-02T10:49:18.957Z,65.90
2019-03-02T10:53:24.230Z,65.20
2019-03-02T10:57:27.138Z,64.50
2019-03-02T11:01:30.469Z,64.30
2019-03-02T11:05:41.301Z,63.70
2019-03-02T11:09:46.393Z,63.30
2019-03-02T11:14:00.456Z,62.40
2019-03-02T11:18:11.605Z,63.40
2019-03-02T11:22:17.041Z,62.30
2019-03-02T11:26:38.690Z,62.30
2019-03-02T11:31:04.163Z,62.30
2019-03-02T11:35:28.879Z,60.50
2019-03-02T11:39:40.760Z,60.20
2019-03-02T11:44:04.835Z,59.40
2019-03-02T11:48:17.420Z,61.30
2019-03-02T11:52:35.046Z,60.70
2019-03-02T11:56:50.501Z,60.50
2019-03-02T12:01:10.378Z,59.70
2019-03-02T12:05:15.399Z,59.30
2019-03-02T12:09:32.404Z,59.40
2019-03-02T12:13:37.457Z,59.90
2019-03-02T12:17:42.626Z,62.00
2019-03-02T12:22:04.683Z,62.70
2019-03-02T12:26:12.920Z,62.90
2019-03-02T12:30:22.278Z,62.90
2019-03-02T12:34:30.951Z,62.20
2019-03-02T12:38:49.140Z,62.00
2019-03-02T12:43:07.561Z,60.10
2019-03-02T12:47:17.420Z,59.70
2019-03-02T12:51:23.819Z,59.00
2019-03-02T12:55:28.893Z,58.50
2019-03-02T12:59:40.501Z,58.90
2019-03-02T13:03:51.623Z,58.00
2019-03-02T13:08:14.956Z,56.80
2019-03-02T13:12:15.981Z,56.50
2019-03-02T13:16:23.801Z,56.70
2019-03-02T13:20:28.414Z,55.50
2019-03-02T13:24:53.702Z,55.70
2019-03-02T13:28:58.098Z,55.40
2019-03-02T13:33:15.397Z,55.60
2019-03-02T13:37:21.248Z,55.30
2019-03-02T13:41:30.345Z,55.40
2019-03-02T13:45:46.088Z,55.80
2019-03-02T13:49:54.630Z,56.20
2019-03-02T13:54:02.834Z,56.40
2019-03-02T13:58:06.879Z,57.20
2019-03-02T14:02:29.149Z,57.00
2019-03-02T14:06:46.505Z,56.50
2019-03-02T14:11:03.705Z,56.30
2019-03-02T14:15:09.432Z,56.40
2019-03-02T14:19:23.516Z,56.40
2019-03-02T14:23:37.425Z,56.00
2019-03-02T14:27:58.701Z,56.50
2019-03-02T14:32:20.670Z,55.90
2019-03-02T14:36:30.734Z,55.70
2019-03-02T14:40:35.568Z,56.30
2019-03-02T14:44:40.715Z,56.00
2019-03-02T14:48:54.720Z,56.00
2019-03-02T14:53:00.247Z,56.60
2019-03-02T14:57:05.339Z,56.70
2019-03-02T15:01:27.125Z,56.90
2019-03-02T15:05:38.059Z,55.90
2019-03-02T15:09:45.553Z,55.70
2019-03-02T15:13:53.025Z,55.80
2019-03-02T15:18:03.891Z,55.70
2019-03-02T15:22:11.773Z,55.50
2019-03-02T15:26:32.154Z,55.50
2019-03-02T15:30:39.982Z,55.40
2019-03-02T15:35:02.229Z,55.30
2019-03-02T15:39:24.493Z,55.60
2019-03-02T15:43:46.401Z,55.90
2019-03-02T15:47:54.233Z,55.50
2019-03-02T15:52:17.357Z,56.00
2019-03-02T15:56:29.608Z,55.90
2019-03-02T16:00:50.587Z,56.20
2019-03-02T16:05:07.762Z,56.50
2019-03-02T16:09:15.701Z,56.50
2019-03-02T16:13:26.589Z,57.00
2019-03-02T16:17:48.162Z,57.10
2019-03-02T16:21:57.211Z,57.30
2019-03-02T16:26:13.032Z,57.80
2019-03-02T16:30:22.356Z,58.30
2019-03-02T16:34:27.875Z,58.90
2019-03-02T16:38:45.242Z,58.60
2019-03-02T16:43:06.909Z,58.60
2019-03-02T16:47:14.965Z,58.80
2019-03-02T16:51:26.109Z,58.90
2019-03-02T16:55:42.073Z,58.50
2019-03-02T17:00:08.837Z,58.10
2019-03-02T17:04:29.235Z,57.30
2019-03-02T17:08:37.201Z,57.00
2019-03-02T17:12:50.007Z,56.80
2019-03-02T17:17:13.960Z,57.10
2019-03-02T17:21:20.598Z,57.10
2019-03-02T17:25:44.488Z,57.30
2019-03-02T17:29:55.393Z,57.20
2019-03-02T17:34:15.685Z,57.60
2019-03-02T17:38:20.749Z,57.60
2019-03-02T17:42:28.180Z,57.70
2019-03-02T17:46:32.922Z,58.00
2019-03-02T17:50:53.016Z,58.30
2019-03-02T17:55:03.106Z,58.30
2019-03-02T17:59:09.109Z,58.50
2019-03-02T18:03:33.960Z,58.90
2019-03-02T18:07:47.852Z,59.80
2019-03-02T18:11:55.933Z,60.50
2019-03-02T18:16:05.683Z,61.30
2019-03-02T18:20:08.718Z,61.50
2019-03-02T18:24:11.842Z,61.70
2019-03-02T18:28:15.589Z,62.00
2019-03-02T18:32:19.080Z,62.30
2019-03-02T18:36:22.413Z,61.90
2019-03-02T18:40:25.572Z,62.10
2019-03-02T18:44:28.785Z,62.10
2019-03-02T18:48:45.824Z,62.10
2019-03-02T18:53:04.237Z,62.40
2019-03-02T18:57:09.766Z,62.60
2019-03-02T19:01:12.896Z,63.60
2019-03-02T19:05:16.602Z,62.90
2019-03-02T19:09:19.748Z,63.10
2019-03-02T19:13:22.861Z,63.50
2019-03-02T19:17:26.049Z,63.60
2019-03-02T19:21:29.118Z,64.20
2019-03-02T19:25:32.287Z,64.50
2019-03-02T19:29:35.439Z,65.60
2019-03-02T19:33:38.621Z,66.30
2019-03-02T19:37:41.923Z,67.30
2019-03-02T19:41:45.031Z,68.10
2019-03-02T19:45:49.228Z,68.80
2019-03-02T19:49:52.468Z,69.50
2019-03-02T19:53:55.660Z,69.50
2019-03-02T19:57:58.865Z,69.50
2019-03-02T20:02:03.435Z,69.40
2019-03-02T20:06:07.674Z,69.60
2019-03-02T20:10:13.062Z,69.60
2019-03-02T20:14:16.419Z,70.20
2019-03-02T20:18:19.670Z,70.20
2019-03-02T20:22:22.788Z,70.50
2019-03-02T20:26:25.903Z,70.60
2019-03-02T20:30:29.429Z,71.10
2019-03-02T20:34:32.616Z,71.80
2019-03-02T20:38:35.801Z,71.50
2019-03-02T20:42:39.042Z,71.50
2019-03-02T20:46:42.224Z,71.70
2019-03-02T20:50:45.342Z,72.00
2019-03-02T20:54:48.514Z,71.80
2019-03-02T20:58:51.660Z,71.80
2019-03-02T21:02:55.814Z,71.90
2019-03-02T21:07:00.175Z,71.60
2019-03-02T21:11:03.511Z,71.90
2019-03-02T21:15:13.163Z,72.10
2019-03-02T21:19:16.291Z,72.10
2019-03-02T21:23:19.448Z,71.80
2019-03-02T21:27:22.931Z,71.70
2019-03-02T21:31:26.118Z,71.50
2019-03-02T21:35:29.294Z,71.30
2019-03-02T21:39:32.669Z,71.50
2019-03-02T21:43:35.955Z,71.60
2019-03-02T21:47:39.134Z,71.50
2019-03-02T21:51:42.304Z,71.70
2019-03-02T21:55:45.612Z,71.80
2019-03-02T21:59:48.780Z,72.90
2019-03-02T22:03:52.110Z,72.30
2019-03-02T22:07:57.398Z,72.30
2019-03-02T22:12:00.545Z,72.10
2019-03-02T22:16:03.853Z,71.90
2019-03-02T22:20:11.404Z,71.60
2019-03-02T22:24:14.579Z,71.60
2019-03-02T22:28:17.880Z,71.50
2019-03-02T22:32:21.058Z,71.60
2019-03-02T22:36:24.169Z,71.40
2019-03-02T22:40:27.364Z,71.40
2019-03-02T22:44:30.480Z,71.60
2019-03-02T22:48:33.578Z,71.60
2019-03-02T22:52:36.705Z,71.80
2019-03-02T22:56:39.876Z,71.60
2019-03-02T23:00:49.444Z,72.50
2019-03-02T23:04:52.638Z,71.80
2019-03-02T23:08:57.771Z,71.70
2019-03-02T23:13:01.162Z,71.70
2019-03-02T23:17:04.366Z,72.00
2019-03-02T23:21:07.502Z,72.00
2019-03-02T23:25:13.106Z,71.90
2019-03-02T23:29:16.325Z,72.20
2019-03-02T23:33:19.545Z,72.40
2019-03-02T23:37:22.760Z,72.50
2019-03-02T23:41:25.837Z,72.80
2019-03-02T23:45:28.966Z,72.50
2019-03-02T23:49:32.096Z,72.70
2019-03-02T23:53:35.427Z,72.70
2019-03-02T23:57:38.761Z,72.70
